Time;durP1;ratioP1;P1;durP2;ratioP2;P2;SDS_P1;SDS_P2;PMS_P1;PMS_P2;Temp;Humidity;BMP_temperature;BMP_pressure;BME280_temperature;BME280_humidity;BME280_pressure;Samples;Min_cycle;Max_cycle;Signal;HPM_P1;HPM_P2
2023/07/16 00:00:43;;;;;;;2.57;2.03;;;25.70;49.60;;;;;;5007131;28;20572;-74
2023/07/16 00:03:13;;;;;;;2.60;1.40;;;25.70;49.50;;;;;;5002840;28;20473;-73
2023/07/16 00:05:42;;;;;;;1.53;1.43;;;25.70;49.60;;;;;;4998601;28;20424;-73
2023/07/16 00:08:11;;;;;;;1.97;1.77;;;25.70;49.50;;;;;;5006669;28;20473;-73
2023/07/16 00:10:39;;;;;;;2.00;1.50;;;25.70;49.60;;;;;;5006141;28;20813;-73
2023/07/16 00:13:07;;;;;;;2.50;1.70;;;25.70;49.60;;;;;;5008926;28;20457;-73
2023/07/16 00:15:37;;;;;;;2.50;1.70;;;25.70;49.50;;;;;;5006845;28;20474;-73
2023/07/16 00:18:06;;;;;;;3.30;1.70;;;25.70;49.40;;;;;;5007584;28;21084;-73
2023/07/16 00:20:34;;;;;;;3.20;1.67;;;25.70;49.60;;;;;;5006162;28;20826;-73
2023/07/16 00:23:03;;;;;;;2.57;1.50;;;25.70;49.60;;;;;;5000736;28;20482;-73
2023/07/16 00:25:31;;;;;;;2.37;1.70;;;25.70;49.40;;;;;;5007723;28;20436;-73
2023/07/16 00:28:00;;;;;;;2.43;1.67;;;25.60;49.40;;;;;;5002529;28;20505;-73
2023/07/16 00:30:28;;;;;;;2.43;1.70;;;25.60;49.50;;;;;;5006205;28;20880;-73
2023/07/16 00:32:58;;;;;;;2.10;1.43;;;25.60;49.40;;;;;;5006599;28;20455;-73
2023/07/16 00:35:27;;;;;;;1.87;1.60;;;25.60;49.50;;;;;;5004485;28;20463;-73
2023/07/16 00:37:55;;;;;;;2.00;1.80;;;25.60;49.50;;;;;;5004108;28;20607;-73
2023/07/16 00:40:24;;;;;;;2.20;1.80;;;25.60;49.40;;;;;;5007761;28;20447;-73
2023/07/16 00:42:52;;;;;;;2.63;2.33;;;25.60;49.50;;;;;;5007357;28;20561;-72
2023/07/16 00:45:21;;;;;;;1.73;1.50;;;25.60;49.40;;;;;;4999932;28;20973;-73
2023/07/16 00:47:49;;;;;;;2.37;1.57;;;25.60;49.40;;;;;;5006475;28;20452;-73
2023/07/16 00:50:20;;;;;;;2.10;1.53;;;25.60;49.50;;;;;;5007724;28;20678;-73
2023/07/16 00:52:50;;;;;;;2.50;1.73;;;25.60;49.40;;;;;;5016985;28;20570;-73
2023/07/16 00:55:19;;;;;;;1.73;1.40;;;25.60;49.30;;;;;;5006959;28;20527;-73
2023/07/16 00:57:48;;;;;;;2.00;1.63;;;25.50;49.40;;;;;;5012628;28;21024;-73
2023/07/16 01:00:16;;;;;;;1.87;1.60;;;25.50;49.40;;;;;;5015845;28;20480;-73
2023/07/16 01:02:45;;;;;;;2.83;1.57;;;25.60;49.40;;;;;;5003366;28;20482;-73
2023/07/16 01:05:14;;;;;;;1.37;1.13;;;25.60;49.50;;;;;;5009041;28;20439;-73
2023/07/16 01:07:52;;;;;;;1.97;1.50;;;25.50;49.20;;;;;;5005404;28;20462;-73
2023/07/16 01:10:20;;;;;;;3.60;1.60;;;25.60;49.40;;;;;;5005786;28;20454;-73
2023/07/16 01:12:50;;;;;;;1.70;1.50;;;25.60;49.30;;;;;;5007499;28;20476;-73
2023/07/16 01:15:19;;;;;;;1.73;1.40;;;25.50;49.20;;;;;;5000300;28;20520;-73
2023/07/16 01:17:50;;;;;;;1.67;1.57;;;25.50;49.10;;;;;;5003515;28;20444;-73
2023/07/16 01:20:19;;;;;;;2.00;1.80;;;25.50;49.00;;;;;;5008490;28;20464;-73
2023/07/16 01:23:18;;;;;;;2.77;1.73;;;25.50;49.00;;;;;;5007186;28;20482;-73
2023/07/16 01:26:05;;;;;;;2.17;1.70;;;25.50;49.00;;;;;;5004579;28;20829;-73
2023/07/16 01:28:54;;;;;;;2.60;1.30;;;25.50;48.60;;;;;;5005035;28;20470;-73
2023/07/16 01:31:24;;;;;;;1.73;1.40;;;25.50;49.00;;;;;;5021543;28;20450;-73
2023/07/16 01:33:53;;;;;;;1.80;1.53;;;25.50;48.80;;;;;;5004596;28;20471;-73
2023/07/16 01:36:23;;;;;;;2.43;1.50;;;25.40;48.50;;;;;;5000251;28;20455;-73
2023/07/16 01:38:52;;;;;;;1.70;1.60;;;25.50;48.90;;;;;;5014116;28;20445;-73
2023/07/16 01:41:20;;;;;;;1.50;1.40;;;25.40;48.70;;;;;;5006056;28;21214;-73
2023/07/16 01:43:49;;;;;;;1.53;1.27;;;25.40;48.90;;;;;;5004149;28;20487;-73
2023/07/16 01:46:18;;;;;;;2.40;1.70;;;25.40;48.50;;;;;;4997471;28;20461;-73
2023/07/16 01:48:48;;;;;;;2.20;1.80;;;25.40;48.50;;;;;;4994421;28;20568;-73
2023/07/16 01:51:17;;;;;;;1.30;1.20;;;25.40;48.40;;;;;;5011586;28;20972;-73
2023/07/16 01:53:45;;;;;;;2.07;1.70;;;25.40;48.60;;;;;;5008817;28;20492;-73
2023/07/16 01:56:13;;;;;;;2.00;1.60;;;25.40;48.60;;;;;;5001317;28;20435;-73
2023/07/16 01:58:42;;;;;;;2.10;1.90;;;25.40;48.40;;;;;;5002845;28;20448;-73
2023/07/16 02:01:11;;;;;;;2.30;1.50;;;25.40;48.30;;;;;;5007655;28;20502;-73
2023/07/16 02:03:40;;;;;;;2.10;1.70;;;25.40;48.20;;;;;;5003311;28;20572;-73
2023/07/16 02:06:10;;;;;;;1.80;1.40;;;25.40;48.50;;;;;;5008326;28;20414;-73
2023/07/16 02:08:38;;;;;;;1.80;1.50;;;25.40;48.50;;;;;;5011563;28;20522;-73
2023/07/16 02:11:07;;;;;;;1.60;1.30;;;25.40;48.50;;;;;;5009594;28;20447;-73
2023/07/16 02:13:35;;;;;;;1.70;1.50;;;25.30;47.90;;;;;;5013168;28;20470;-73
2023/07/16 02:16:04;;;;;;;1.80;1.30;;;25.40;48.10;;;;;;5011103;28;20871;-73
2023/07/16 02:18:32;;;;;;;1.80;1.70;;;25.40;48.30;;;;;;4993831;28;20457;-73
2023/07/16 02:21:02;;;;;;;2.53;1.80;;;25.40;48.30;;;;;;4999814;28;20491;-73
2023/07/16 02:23:31;;;;;;;2.53;1.77;;;25.40;48.60;;;;;;4997998;28;20493;-73
2023/07/16 02:26:00;;;;;;;1.40;1.07;;;25.30;48.50;;;;;;5001606;28;20455;-73
2023/07/16 02:28:28;;;;;;;2.77;1.60;;;25.40;48.40;;;;;;5016767;28;20500;-73
2023/07/16 02:30:57;;;;;;;2.27;1.60;;;25.40;48.00;;;;;;5008454;28;20424;-73
2023/07/16 02:33:25;;;;;;;1.70;1.43;;;25.40;48.50;;;;;;5004932;28;20469;-73
2023/07/16 02:35:54;;;;;;;1.70;1.20;;;25.30;48.20;;;;;;5011322;28;20438;-73
2023/07/16 02:38:22;;;;;;;1.57;1.40;;;25.40;48.30;;;;;;4999239;28;20864;-73
2023/07/16 02:40:52;;;;;;;3.10;1.50;;;25.30;48.30;;;;;;5013195;28;20942;-73
2023/07/16 02:43:21;;;;;;;1.70;1.13;;;25.30;47.80;;;;;;5002340;28;20513;-73
2023/07/16 02:45:49;;;;;;;1.90;1.60;;;25.30;48.10;;;;;;5007937;28;20438;-73
2023/07/16 02:48:18;;;;;;;1.47;1.37;;;25.30;48.30;;;;;;5004931;28;20495;-73
2023/07/16 02:50:46;;;;;;;2.27;1.77;;;25.30;48.30;;;;;;5012423;28;20818;-74
2023/07/16 02:53:15;;;;;;;3.73;1.83;;;25.30;48.30;;;;;;5006374;28;20987;-73
2023/07/16 02:55:46;;;;;;;1.60;1.50;;;25.30;48.00;;;;;;5008810;28;20447;-73
2023/07/16 02:58:15;;;;;;;2.50;1.53;;;25.30;47.90;;;;;;5008949;28;20458;-73
2023/07/16 03:00:44;;;;;;;1.90;1.47;;;25.30;48.00;;;;;;5016549;28;20810;-73
2023/07/16 03:03:12;;;;;;;1.40;1.13;;;25.30;48.20;;;;;;5009028;28;20455;-73
2023/07/16 03:05:41;;;;;;;1.50;1.40;;;25.30;48.30;;;;;;5010354;28;20864;-73
2023/07/16 03:08:09;;;;;;;2.30;1.60;;;25.20;48.20;;;;;;5008486;28;20465;-73
2023/07/16 03:10:38;;;;;;;2.20;1.53;;;25.20;48.30;;;;;;5005621;28;20469;-73
2023/07/16 03:13:06;;;;;;;1.57;1.40;;;25.20;47.80;;;;;;5001441;28;20469;-73
2023/07/16 03:15:36;;;;;;;3.00;1.30;;;25.30;48.20;;;;;;5002945;28;20455;-73
2023/07/16 03:18:04;;;;;;;1.97;1.57;;;25.30;48.10;;;;;;5012075;28;20454;-73
2023/07/16 03:20:33;;;;;;;2.40;1.90;;;25.20;48.10;;;;;;5011567;28;20439;-73
2023/07/16 03:23:02;;;;;;;1.37;1.20;;;25.20;47.70;;;;;;5005585;28;21007;-74
2023/07/16 03:25:31;;;;;;;4.87;1.43;;;25.20;47.90;;;;;;5013401;28;20448;-73
2023/07/16 03:27:59;;;;;;;1.50;1.37;;;25.20;48.00;;;;;;5004739;28;20516;-73
2023/07/16 03:30:28;;;;;;;2.37;1.50;;;25.20;48.20;;;;;;4999829;28;20496;-73
2023/07/16 03:32:58;;;;;;;2.03;1.53;;;25.20;48.10;;;;;;5013358;28;20453;-73
2023/07/16 03:35:26;;;;;;;2.20;1.40;;;25.20;48.30;;;;;;5007324;28;20454;-73
2023/07/16 03:37:55;;;;;;;2.50;1.27;;;25.20;48.20;;;;;;5007605;28;20453;-74
2023/07/16 03:40:27;;;;;;;1.80;1.37;;;25.20;48.10;;;;;;5017491;28;20832;-73
2023/07/16 03:42:55;;;;;;;1.60;1.30;;;25.20;47.90;;;;;;5009425;28;20453;-73
2023/07/16 03:45:25;;;;;;;2.77;1.50;;;25.20;48.20;;;;;;5008191;28;20438;-73
2023/07/16 03:47:54;;;;;;;1.93;1.60;;;25.20;48.10;;;;;;5007152;28;20536;-72
2023/07/16 03:50:27;;;;;;;1.80;1.50;;;25.20;48.30;;;;;;5004806;28;20501;-73
2023/07/16 03:52:56;;;;;;;2.07;1.60;;;25.10;48.30;;;;;;5009574;28;21000;-73
2023/07/16 03:55:25;;;;;;;1.60;1.40;;;25.10;47.90;;;;;;5009417;28;20494;-73
2023/07/16 03:57:56;;;;;;;2.60;2.00;;;25.10;48.20;;;;;;5001238;28;20455;-72
2023/07/16 04:00:25;;;;;;;2.40;1.77;;;25.20;48.30;;;;;;5009279;28;20429;-74
2023/07/16 04:02:53;;;;;;;4.20;1.63;;;25.20;48.40;;;;;;5006730;28;20480;-72
2023/07/16 04:05:22;;;;;;;2.87;1.97;;;25.10;48.00;;;;;;5015601;28;20527;-73
2023/07/16 04:07:53;;;;;;;1.53;1.07;;;25.10;48.10;;;;;;5003627;28;20440;-73
2023/07/16 04:10:22;;;;;;;2.17;1.20;;;25.10;48.40;;;;;;5007235;28;20876;-73
2023/07/16 04:12:50;;;;;;;2.60;1.23;;;25.10;48.30;;;;;;4987092;28;20501;-73
2023/07/16 04:15:19;;;;;;;2.13;1.50;;;25.10;48.20;;;;;;5010409;28;20791;-73
2023/07/16 04:17:47;;;;;;;3.17;1.80;;;25.10;47.90;;;;;;5005703;28;20817;-73
2023/07/16 04:20:16;;;;;;;2.27;1.80;;;25.10;48.20;;;;;;5008728;28;20877;-73
2023/07/16 04:22:44;;;;;;;2.23;1.60;;;25.10;47.90;;;;;;5007884;28;20463;-73
2023/07/16 04:25:14;;;;;;;2.00;1.50;;;25.10;48.00;;;;;;5007369;28;20520;-73
2023/07/16 04:27:43;;;;;;;1.80;1.37;;;25.10;48.00;;;;;;5008342;28;20524;-73
2023/07/16 04:30:12;;;;;;;1.90;1.30;;;25.10;47.80;;;;;;5007354;28;20575;-73
2023/07/16 04:32:41;;;;;;;1.97;1.87;;;25.10;48.10;;;;;;5003970;28;20485;-73
2023/07/16 04:35:10;;;;;;;1.57;1.30;;;25.10;48.20;;;;;;5010527;28;20564;-73
2023/07/16 04:37:38;;;;;;;1.67;1.50;;;25.10;48.10;;;;;;5010732;28;20461;-73
2023/07/16 04:40:08;;;;;;;3.77;1.83;;;25.10;48.10;;;;;;5007694;28;20526;-73
2023/07/16 04:42:38;;;;;;;1.30;1.20;;;25.00;47.70;;;;;;5004357;28;20462;-73
2023/07/16 04:45:08;;;;;;;1.63;1.50;;;25.00;48.10;;;;;;5008239;28;20464;-73
2023/07/16 04:47:36;;;;;;;1.53;1.43;;;25.00;48.10;;;;;;5000650;28;20457;-73
2023/07/16 04:50:06;;;;;;;1.77;1.60;;;25.00;48.20;;;;;;5008338;28;20856;-73
2023/07/16 04:52:34;;;;;;;2.30;1.70;;;25.00;47.80;;;;;;5007434;28;20451;-73
2023/07/16 04:55:03;;;;;;;1.60;1.50;;;24.90;47.80;;;;;;5001944;28;20551;-73
2023/07/16 04:57:34;;;;;;;2.00;1.60;;;25.00;48.10;;;;;;4989894;28;20444;-73
2023/07/16 05:00:05;;;;;;;2.83;1.60;;;25.00;47.80;;;;;;5004065;28;21049;-73
2023/07/16 05:02:34;;;;;;;2.77;1.90;;;25.00;48.10;;;;;;5001331;28;20450;-73
2023/07/16 05:05:03;;;;;;;2.00;1.50;;;25.00;48.00;;;;;;5005820;28;20533;-73
2023/07/16 05:07:32;;;;;;;2.83;1.73;;;25.00;48.00;;;;;;5013254;28;20453;-73
2023/07/16 05:10:00;;;;;;;1.67;1.57;;;24.90;47.90;;;;;;5010060;28;20501;-73
2023/07/16 05:12:29;;;;;;;2.50;1.53;;;24.90;47.80;;;;;;5010235;28;20436;-73
2023/07/16 05:14:57;;;;;;;2.40;1.87;;;24.90;47.80;;;;;;5007618;28;20874;-73
2023/07/16 05:17:27;;;;;;;4.73;2.23;;;24.90;47.90;;;;;;5007231;28;21044;-73
2023/07/16 05:19:56;;;;;;;2.50;1.70;;;24.90;47.40;;;;;;5003928;28;20470;-73
2023/07/16 05:22:25;;;;;;;2.13;1.80;;;24.90;47.40;;;;;;4996843;28;20547;-73
2023/07/16 05:24:53;;;;;;;2.40;2.20;;;24.90;47.70;;;;;;5005447;28;20480;-73
2023/07/16 05:27:22;;;;;;;2.60;1.63;;;24.90;48.30;;;;;;5011987;28;20484;-73
2023/07/16 05:29:50;;;;;;;1.70;1.60;;;24.90;47.40;;;;;;5005995;28;20537;-73
2023/07/16 05:32:19;;;;;;;2.60;1.73;;;24.90;47.50;;;;;;5000788;28;20512;-73
2023/07/16 05:34:49;;;;;;;3.20;2.37;;;24.90;47.50;;;;;;5015817;28;20523;-73
2023/07/16 05:37:18;;;;;;;4.43;2.07;;;24.90;47.30;;;;;;5004074;28;20806;-73
2023/07/16 05:39:46;;;;;;;2.13;1.90;;;24.90;47.10;;;;;;5001475;28;20472;-73
2023/07/16 05:42:15;;;;;;;1.60;1.43;;;24.90;47.30;;;;;;5010578;28;20420;-73
2023/07/16 05:44:44;;;;;;;4.87;2.33;;;24.90;47.40;;;;;;5006137;28;20464;-73
2023/07/16 05:47:13;;;;;;;2.17;1.67;;;24.80;47.20;;;;;;5005382;28;20441;-73
2023/07/16 05:49:41;;;;;;;5.50;2.40;;;24.80;47.30;;;;;;5007504;28;20972;-73
2023/07/16 05:52:11;;;;;;;2.13;1.90;;;24.90;47.30;;;;;;5003901;28;20488;-73
2023/07/16 05:54:39;;;;;;;2.37;1.90;;;24.90;47.20;;;;;;5004221;28;21008;-73
2023/07/16 05:57:08;;;;;;;3.67;2.87;;;24.90;47.40;;;;;;5003041;28;21061;-73
2023/07/16 05:59:37;;;;;;;3.60;2.23;;;24.80;46.40;;;;;;5011459;28;20490;-73
2023/07/16 06:02:06;;;;;;;2.50;2.30;;;24.80;46.80;;;;;;5002307;28;20444;-73
2023/07/16 06:04:34;;;;;;;3.67;2.67;;;24.80;47.00;;;;;;5000226;28;21076;-73
2023/07/16 06:07:04;;;;;;;2.57;2.37;;;24.80;47.00;;;;;;5006054;28;20460;-73
2023/07/16 06:09:34;;;;;;;4.00;2.30;;;24.80;47.00;;;;;;5014296;28;20853;-73
2023/07/16 06:12:03;;;;;;;6.10;2.77;;;24.80;46.80;;;;;;4998798;28;20463;-73
2023/07/16 06:14:31;;;;;;;3.30;3.00;;;24.80;46.70;;;;;;5003721;28;20465;-73
2023/07/16 06:17:00;;;;;;;4.93;3.57;;;24.80;46.50;;;;;;4998627;28;20535;-73
2023/07/16 06:19:29;;;;;;;3.13;2.33;;;24.80;46.30;;;;;;5011071;28;20470;-73
2023/07/16 06:21:58;;;;;;;3.10;2.67;;;24.80;46.40;;;;;;5007425;28;20434;-73
2023/07/16 06:24:26;;;;;;;4.77;2.87;;;24.70;46.40;;;;;;5001973;28;20940;-73
2023/07/16 06:26:56;;;;;;;4.50;2.47;;;24.80;46.60;;;;;;4984470;28;20969;-73
2023/07/16 06:29:25;;;;;;;3.00;2.70;;;24.70;46.10;;;;;;5000353;28;20988;-73
2023/07/16 06:31:57;;;;;;;2.80;2.57;;;24.70;46.00;;;;;;4999828;28;20506;-73
2023/07/16 06:34:26;;;;;;;3.27;2.17;;;24.70;46.40;;;;;;4998553;28;20952;-74
2023/07/16 06:36:54;;;;;;;3.03;2.40;;;24.70;46.70;;;;;;5001579;28;20544;-73
2023/07/16 06:39:23;;;;;;;3.40;2.40;;;24.70;46.70;;;;;;5000464;28;20460;-73
2023/07/16 06:41:51;;;;;;;3.10;2.80;;;24.70;46.60;;;;;;4998652;28;20500;-73
2023/07/16 06:44:22;;;;;;;2.77;2.30;;;24.70;46.40;;;;;;5000299;28;20534;-73
2023/07/16 06:46:51;;;;;;;4.90;3.30;;;24.80;47.00;;;;;;5001425;28;20823;-73
2023/07/16 06:49:19;;;;;;;3.57;2.90;;;24.80;46.40;;;;;;5004859;28;20948;-73
2023/07/16 06:51:48;;;;;;;3.30;3.00;;;24.70;46.50;;;;;;5005606;28;20482;-73
2023/07/16 06:54:17;;;;;;;4.20;3.30;;;24.70;46.50;;;;;;4998798;28;20479;-73
2023/07/16 06:56:45;;;;;;;6.40;2.83;;;24.70;46.40;;;;;;5002019;28;20473;-73
2023/07/16 06:59:14;;;;;;;4.90;2.83;;;24.80;46.50;;;;;;5002176;28;20464;-73
2023/07/16 07:01:44;;;;;;;2.60;2.23;;;24.70;46.40;;;;;;5000088;28;20443;-73
2023/07/16 07:04:13;;;;;;;3.37;2.83;;;24.80;46.60;;;;;;4995336;28;20500;-73
2023/07/16 07:06:41;;;;;;;3.50;2.80;;;24.80;46.20;;;;;;5005560;28;20519;-73
2023/07/16 07:09:10;;;;;;;5.17;3.23;;;24.80;45.90;;;;;;4997088;28;20485;-73
2023/07/16 07:11:38;;;;;;;5.10;3.90;;;24.80;46.10;;;;;;5005547;28;20488;-73
2023/07/16 07:14:07;;;;;;;4.60;3.77;;;24.70;45.50;;;;;;5005526;28;21114;-73
2023/07/16 07:16:39;;;;;;;3.80;3.17;;;24.70;44.90;;;;;;5004976;28;20570;-73
2023/07/16 07:19:10;;;;;;;3.47;2.73;;;24.70;45.10;;;;;;5003609;28;20574;-73
2023/07/16 07:21:38;;;;;;;5.00;3.70;;;24.70;45.20;;;;;;5008930;28;20881;-73
2023/07/16 07:24:10;;;;;;;5.67;3.50;;;24.80;45.20;;;;;;5003918;28;20564;-73
2023/07/16 07:26:38;;;;;;;3.10;2.57;;;24.80;45.40;;;;;;4997744;28;20734;-73
2023/07/16 07:29:07;;;;;;;3.97;2.87;;;24.80;45.70;;;;;;5006985;28;20486;-74
2023/07/16 07:31:36;;;;;;;3.63;3.00;;;24.80;46.90;;;;;;5006286;28;20463;-73
2023/07/16 07:34:04;;;;;;;4.33;3.50;;;24.80;45.80;;;;;;5003198;28;20476;-73
2023/07/16 07:36:34;;;;;;;3.80;3.33;;;24.80;45.20;;;;;;4994441;28;20958;-73
2023/07/16 07:39:03;;;;;;;5.20;3.00;;;24.80;45.60;;;;;;4999808;28;20562;-73
2023/07/16 07:41:32;;;;;;;3.27;2.80;;;24.80;45.50;;;;;;5014357;28;20893;-73
2023/07/16 07:44:01;;;;;;;6.80;3.40;;;24.80;45.60;;;;;;4997881;28;20480;-73
2023/07/16 07:46:29;;;;;;;3.17;2.87;;;24.80;45.90;;;;;;4999120;28;20452;-73
2023/07/16 07:48:58;;;;;;;3.97;3.23;;;24.80;45.90;;;;;;5000150;28;20555;-73
2023/07/16 07:51:26;;;;;;;4.70;3.20;;;24.80;45.90;;;;;;4997826;28;20456;-73
2023/07/16 07:53:57;;;;;;;3.83;2.90;;;24.80;46.00;;;;;;5004333;28;20891;-73
2023/07/16 07:56:25;;;;;;;4.93;3.10;;;24.80;45.90;;;;;;5002683;28;20447;-73
2023/07/16 07:58:54;;;;;;;3.13;2.77;;;24.80;45.70;;;;;;5006674;28;21043;-66
2023/07/16 08:01:23;;;;;;;4.27;3.00;;;24.80;45.70;;;;;;5004396;28;20439;-67
2023/07/16 08:03:51;;;;;;;4.03;2.80;;;24.80;46.10;;;;;;5007070;28;20467;-73
2023/07/16 08:06:20;;;;;;;4.00;2.80;;;24.70;46.00;;;;;;5003113;28;20847;-73
2023/07/16 08:08:49;;;;;;;4.20;3.20;;;24.80;46.10;;;;;;5006999;28;20445;-73
2023/07/16 08:11:19;;;;;;;3.20;2.90;;;24.80;46.00;;;;;;5007477;28;20456;-73
2023/07/16 08:13:49;;;;;;;3.60;2.90;;;24.80;46.20;;;;;;5005581;28;20472;-73
2023/07/16 08:16:18;;;;;;;3.40;3.10;;;24.80;45.90;;;;;;5006154;28;20471;-74
2023/07/16 08:18:46;;;;;;;6.73;3.10;;;24.80;46.00;;;;;;4995239;28;20482;-73
2023/07/16 08:21:19;;;;;;;6.40;3.80;;;24.90;42.70;;;;;;5007727;28;20508;-73
2023/07/16 08:23:49;;;;;;;9.07;4.43;;;24.80;42.70;;;;;;5021415;28;20465;-73
2023/07/16 08:26:19;;;;;;;5.00;3.67;;;24.80;42.40;;;;;;5003042;28;20812;-73
2023/07/16 08:28:48;;;;;;;4.00;3.50;;;24.70;42.50;;;;;;5007146;28;20523;-72
2023/07/16 08:31:16;;;;;;;6.37;4.43;;;24.70;42.40;;;;;;5004423;28;20478;-73
2023/07/16 08:33:45;;;;;;;4.70;3.60;;;24.60;41.80;;;;;;5008615;28;20491;-73
2023/07/16 08:36:15;;;;;;;5.50;3.77;;;24.70;41.80;;;;;;5003634;28;20442;-73
2023/07/16 08:38:44;;;;;;;4.53;3.27;;;24.60;41.90;;;;;;5006191;28;20970;-73
2023/07/16 08:41:13;;;;;;;8.07;4.00;;;24.60;41.70;;;;;;5000261;28;20447;-73
2023/07/16 08:43:48;;;;;;;4.27;3.47;;;24.60;41.80;;;;;;5004868;28;20475;-73
2023/07/16 08:46:17;;;;;;;6.07;3.57;;;24.60;41.90;;;;;;5008440;28;20446;-73
2023/07/16 08:48:47;;;;;;;4.07;3.63;;;24.60;41.70;;;;;;5003183;28;20475;-73
2023/07/16 08:51:16;;;;;;;4.23;3.70;;;24.60;41.60;;;;;;5003270;28;20848;-73
2023/07/16 08:53:45;;;;;;;4.93;3.27;;;24.60;41.60;;;;;;5005676;28;20478;-73
2023/07/16 08:56:15;;;;;;;4.73;3.20;;;24.60;41.90;;;;;;5011856;28;20506;-73
2023/07/16 08:58:45;;;;;;;3.73;3.40;;;24.60;42.30;;;;;;5003579;28;20470;-73
2023/07/16 09:01:18;;;;;;;5.83;3.30;;;24.60;41.90;;;;;;5000753;28;20988;-66
2023/07/16 09:03:50;;;;;;;3.50;2.97;;;24.60;42.00;;;;;;5000295;28;20563;-66
2023/07/16 09:06:19;;;;;;;5.23;3.83;;;24.50;41.70;;;;;;5007818;28;20948;-67
2023/07/16 09:08:48;;;;;;;4.33;3.40;;;24.50;41.70;;;;;;5005367;28;20475;-66
2023/07/16 09:11:21;;;;;;;4.80;3.57;;;24.50;41.60;;;;;;5003265;28;20462;-66
2023/07/16 09:13:50;;;;;;;4.70;3.73;;;24.50;41.60;;;;;;5006266;28;20566;-67
2023/07/16 09:16:21;;;;;;;5.40;3.50;;;24.50;41.30;;;;;;4997358;28;20511;-66
2023/07/16 09:18:50;;;;;;;4.80;2.90;;;24.50;41.60;;;;;;5005260;28;20468;-67
2023/07/16 09:21:18;;;;;;;4.43;3.30;;;24.50;41.40;;;;;;5006453;28;20529;-67
2023/07/16 09:23:47;;;;;;;3.93;3.53;;;24.50;41.50;;;;;;4999671;28;20483;-66
2023/07/16 09:26:16;;;;;;;4.03;3.40;;;24.50;41.30;;;;;;5018374;28;20502;-66
2023/07/16 09:28:48;;;;;;;3.97;3.50;;;24.50;41.40;;;;;;4989273;28;20446;-66
2023/07/16 09:31:17;;;;;;;4.67;3.70;;;24.50;41.20;;;;;;4999616;28;20446;-67
2023/07/16 09:33:53;;;;;;;3.60;2.77;;;24.50;41.40;;;;;;5002764;28;20467;-66
2023/07/16 09:36:25;;;;;;;3.83;3.53;;;24.50;41.30;;;;;;5000075;28;20526;-66
2023/07/16 09:38:55;;;;;;;4.57;3.30;;;24.50;41.40;;;;;;4998800;28;20534;-72
2023/07/16 09:41:25;;;;;;;4.00;2.80;;;24.50;41.40;;;;;;5006338;28;20479;-73
2023/07/16 09:43:54;;;;;;;3.23;2.87;;;24.50;41.30;;;;;;5003684;28;21004;-73
2023/07/16 09:46:23;;;;;;;2.90;2.57;;;24.50;41.00;;;;;;5001685;28;20447;-73
2023/07/16 09:48:53;;;;;;;5.07;3.80;;;24.50;41.20;;;;;;5002735;28;20566;-73
2023/07/16 09:51:22;;;;;;;4.43;3.33;;;24.50;41.10;;;;;;5015402;28;20435;-73
2023/07/16 09:53:53;;;;;;;3.57;3.00;;;24.50;41.30;;;;;;5002405;28;20491;-73
2023/07/16 09:56:22;;;;;;;3.70;3.40;;;24.50;41.10;;;;;;5004134;28;20441;-73
2023/07/16 09:58:51;;;;;;;5.10;3.70;;;24.50;41.30;;;;;;5005798;28;20469;-73
2023/07/16 10:01:22;;;;;;;4.90;3.40;;;24.50;41.30;;;;;;5003056;28;20475;-73
2023/07/16 10:03:52;;;;;;;3.50;2.90;;;24.50;41.00;;;;;;5020925;28;20490;-73
2023/07/16 10:06:21;;;;;;;3.57;3.20;;;24.40;41.00;;;;;;5006120;28;20856;-73
2023/07/16 10:08:50;;;;;;;4.40;3.30;;;24.50;40.80;;;;;;5005159;28;20781;-66
2023/07/16 10:11:19;;;;;;;5.67;3.60;;;24.50;41.10;;;;;;5003053;28;20447;-66
2023/07/16 10:13:51;;;;;;;3.67;3.10;;;24.50;41.10;;;;;;5005631;28;20471;-66
2023/07/16 10:16:24;;;;;;;5.70;3.43;;;24.50;41.00;;;;;;5005832;28;20448;-66
2023/07/16 10:18:54;;;;;;;3.60;3.10;;;24.40;41.00;;;;;;5009338;28;21057;-66
2023/07/16 10:21:26;;;;;;;3.40;3.10;;;24.50;40.80;;;;;;5003547;28;20448;-66
2023/07/16 10:23:59;;;;;;;3.63;2.83;;;24.50;40.80;;;;;;5004580;28;20827;-66
2023/07/16 10:26:29;;;;;;;4.50;3.20;;;24.50;40.90;;;;;;5010374;28;20426;-66
2023/07/16 10:28:57;;;;;;;4.67;3.57;;;24.40;40.90;;;;;;5004990;28;20508;-66
2023/07/16 10:31:26;;;;;;;3.80;3.50;;;24.50;40.80;;;;;;5002924;28;20455;-66
2023/07/16 10:34:04;;;;;;;4.30;3.33;;;24.40;40.70;;;;;;5000179;28;20472;-66
2023/07/16 10:36:38;;;;;;;3.77;3.00;;;24.50;40.50;;;;;;5003103;28;21749;-66
2023/07/16 10:39:07;;;;;;;5.60;3.20;;;24.50;40.60;;;;;;5002532;28;20467;-66
2023/07/16 10:41:36;;;;;;;3.60;2.80;;;24.50;40.70;;;;;;4999033;28;20443;-66
2023/07/16 10:44:05;;;;;;;5.40;3.00;;;24.50;40.60;;;;;;5000649;28;20482;-66
2023/07/16 10:46:33;;;;;;;3.53;3.13;;;24.40;40.50;;;;;;5008394;28;20454;-66
2023/07/16 10:49:03;;;;;;;4.40;3.10;;;24.50;40.60;;;;;;5003654;28;20820;-66
2023/07/16 10:51:32;;;;;;;3.97;3.23;;;24.50;40.40;;;;;;5000093;28;20851;-66
2023/07/16 10:54:02;;;;;;;3.83;3.53;;;24.40;40.60;;;;;;5001540;28;21011;-66
2023/07/16 10:56:30;;;;;;;3.97;2.87;;;24.50;40.70;;;;;;4998662;28;20454;-66
2023/07/16 10:58:58;;;;;;;3.70;2.50;;;24.50;40.70;;;;;;5001866;28;20879;-66
2023/07/16 11:01:29;;;;;;;4.80;3.10;;;24.50;40.50;;;;;;5003189;28;20451;-72
2023/07/16 11:04:03;;;;;;;7.53;3.73;;;24.50;40.60;;;;;;5002023;28;20480;-67
2023/07/16 11:06:31;;;;;;;4.40;3.10;;;24.50;40.70;;;;;;5002181;28;20448;-73
2023/07/16 11:09:07;;;;;;;3.20;2.70;;;24.50;40.80;;;;;;5001006;28;20467;-73
2023/07/16 11:11:35;;;;;;;4.63;3.03;;;24.50;40.30;;;;;;4998979;28;20997;-73
2023/07/16 11:14:05;;;;;;;4.43;3.50;;;24.50;40.30;;;;;;5003657;28;20846;-73
2023/07/16 11:16:35;;;;;;;3.03;2.73;;;24.50;39.80;;;;;;5000699;28;20462;-73
2023/07/16 11:19:07;;;;;;;4.00;3.00;;;24.50;40.20;;;;;;5001384;28;20481;-73
2023/07/16 11:21:36;;;;;;;3.37;2.80;;;24.50;40.20;;;;;;5007001;28;20476;-72
2023/07/16 11:24:11;;;;;;;4.90;3.57;;;24.50;39.90;;;;;;5001715;28;20475;-73
2023/07/16 11:26:40;;;;;;;4.00;3.00;;;24.50;40.20;;;;;;5014641;28;20964;-73
2023/07/16 11:29:15;;;;;;;3.50;3.00;;;24.50;39.60;;;;;;4998632;28;21211;-73
2023/07/16 11:31:44;;;;;;;3.53;2.63;;;24.50;39.60;;;;;;5005417;28;20434;-73
2023/07/16 11:34:15;;;;;;;3.73;3.23;;;24.50;39.60;;;;;;4999280;28;20471;-73
2023/07/16 11:36:46;;;;;;;4.53;3.00;;;24.50;39.20;;;;;;5006476;28;20468;-73
2023/07/16 11:39:20;;;;;;;4.40;3.37;;;24.50;39.00;;;;;;5001639;28;20545;-72
2023/07/16 11:41:56;;;;;;;4.60;2.90;;;24.60;39.70;;;;;;4997033;28;20443;-73
2023/07/16 11:44:26;;;;;;;2.90;2.53;;;24.60;40.00;;;;;;4999177;28;20477;-73
2023/07/16 11:46:55;;;;;;;5.90;2.87;;;24.60;39.80;;;;;;5004194;28;20479;-73
2023/07/16 11:49:25;;;;;;;3.27;2.97;;;24.60;39.10;;;;;;5000140;28;20819;-73
2023/07/16 11:51:53;;;;;;;7.50;3.90;;;24.60;39.10;;;;;;5003119;28;20479;-73
2023/07/16 11:54:22;;;;;;;6.53;3.97;;;24.60;39.10;;;;;;5008384;28;20467;-73
2023/07/16 11:56:50;;;;;;;3.53;3.23;;;24.60;39.10;;;;;;5009826;28;20947;-73
2023/07/16 11:59:20;;;;;;;3.73;3.30;;;24.60;39.40;;;;;;5003255;28;20510;-72
2023/07/16 12:01:49;;;;;;;4.27;3.57;;;24.60;39.70;;;;;;5004872;28;20444;-73
2023/07/16 12:04:18;;;;;;;4.13;3.10;;;24.50;39.40;;;;;;4999485;28;20467;-73
2023/07/16 12:06:48;;;;;;;5.27;3.60;;;24.60;39.50;;;;;;5008046;28;21017;-73
2023/07/16 12:09:16;;;;;;;5.30;3.77;;;24.50;39.10;;;;;;5004027;28;20527;-73
2023/07/16 12:11:45;;;;;;;6.67;3.63;;;24.50;39.00;;;;;;5006389;28;20439;-73
2023/07/16 12:14:13;;;;;;;3.63;3.30;;;24.50;39.80;;;;;;5007780;28;20891;-73
2023/07/16 12:16:42;;;;;;;3.70;3.30;;;24.50;39.40;;;;;;5004877;28;20806;-73
2023/07/16 12:19:11;;;;;;;5.40;3.40;;;24.50;39.00;;;;;;5001965;28;21378;-73
2023/07/16 12:21:40;;;;;;;7.40;3.63;;;24.50;39.50;;;;;;5007668;28;20467;-73
2023/07/16 12:24:10;;;;;;;3.50;3.20;;;24.50;39.20;;;;;;5005689;28;20566;-72
2023/07/16 12:26:38;;;;;;;3.67;3.27;;;24.50;39.10;;;;;;4999532;28;20441;-73
2023/07/16 12:29:06;;;;;;;4.17;3.77;;;24.60;39.20;;;;;;5004919;28;20452;-73
2023/07/16 12:31:35;;;;;;;3.70;3.40;;;24.60;39.30;;;;;;5001713;28;20964;-73
2023/07/16 12:34:04;;;;;;;5.13;3.50;;;24.60;39.10;;;;;;5006353;28;20569;-73
2023/07/16 12:36:32;;;;;;;3.77;3.07;;;24.60;39.50;;;;;;5005561;28;20848;-73
2023/07/16 12:39:01;;;;;;;5.00;3.30;;;24.60;39.90;;;;;;5005794;28;20517;-73
2023/07/16 12:41:30;;;;;;;5.50;3.20;;;24.60;39.10;;;;;;5006498;28;20842;-73
2023/07/16 12:43:59;;;;;;;4.10;3.60;;;24.60;39.10;;;;;;5008594;28;21121;-73
2023/07/16 12:46:27;;;;;;;5.47;3.60;;;24.60;39.10;;;;;;5004640;28;20448;-73
2023/07/16 12:48:56;;;;;;;3.73;2.93;;;24.60;39.10;;;;;;5009578;28;20501;-73
2023/07/16 12:54:18;;;;;;;4.33;3.13;;;24.70;39.10;;;;;;4946073;28;20471;-47
2023/07/16 12:56:49;;;;;;;4.53;3.83;;;24.70;39.10;;;;;;4944494;28;20425;-52
2023/07/16 12:59:17;;;;;;;4.07;3.60;;;24.60;39.10;;;;;;4965927;28;20814;-46
2023/07/16 13:01:46;;;;;;;3.70;2.80;;;24.60;39.10;;;;;;4965255;28;20895;-45